createdAt,value
2019-04-20T00:01:03.353Z,11.33
2019-04-20T00:03:38.037Z,14.63
2019-04-20T00:06:01.856Z,11.07
2019-04-20T00:08:33.176Z,11.50
2019-04-20T00:11:07.454Z,10.97
2019-04-20T00:13:41.785Z,11.60
2019-04-20T00:15:59.916Z,11.43
2019-04-20T00:18:36.782Z,11.53
2019-04-20T00:21:18.075Z,11.70
2019-04-20T00:23:50.274Z,11.77
2019-04-20T00:26:56.373Z,12.47
2019-04-20T00:29:17.760Z,11.87
2019-04-20T00:31:40.254Z,13.00
2019-04-20T00:34:03.789Z,12.70
2019-04-20T00:36:26.282Z,12.93
2019-04-20T00:38:59.491Z,13.60
2019-04-20T00:41:25.857Z,14.47
2019-04-20T00:43:58.656Z,13.33
2019-04-20T00:46:30.560Z,13.33
2019-04-20T00:49:02.791Z,15.03
2019-04-20T00:51:39.308Z,13.30
2019-04-20T00:53:55.906Z,15.53
2019-04-20T00:56:24.464Z,15.37
2019-04-20T00:59:09.256Z,13.67
2019-04-20T01:01:42.284Z,14.27
2019-04-20T01:04:14.884Z,13.67
2019-04-20T01:07:12.312Z,14.53
2019-04-20T01:10:02.688Z,15.20
2019-04-20T01:12:35.064Z,14.17
2019-04-20T01:15:05.805Z,13.50
2019-04-20T01:17:31.323Z,14.17
2019-04-20T01:19:59.157Z,14.10
2019-04-20T01:22:30.026Z,13.73
2019-04-20T01:25:07.880Z,14.73
2019-04-20T01:27:41.171Z,15.13
2019-04-20T01:30:05.866Z,14.27
2019-04-20T01:32:34.359Z,14.90
2019-04-20T01:35:14.012Z,14.80
2019-04-20T01:37:38.427Z,15.90
2019-04-20T01:40:00.401Z,15.90
2019-04-20T01:42:26.081Z,17.43
2019-04-20T01:44:57.070Z,16.67
2019-04-20T01:47:32.300Z,16.90
2019-04-20T01:50:03.812Z,17.10
2019-04-20T01:52:44.263Z,17.47
2019-04-20T01:55:33.643Z,18.33
2019-04-20T01:58:05.064Z,17.67
2019-04-20T02:00:44.960Z,17.23
2019-04-20T02:03:36.982Z,17.80
2019-04-20T02:06:07.555Z,18.70
2019-04-20T02:08:34.376Z,16.70
2019-04-20T02:11:06.223Z,17.50
2019-04-20T02:13:43.619Z,17.93
2019-04-20T02:16:11.430Z,19.90
2019-04-20T02:18:44.225Z,17.57
2019-04-20T02:21:22.016Z,18.77
2019-04-20T02:23:45.506Z,19.30
2019-04-20T02:26:05.116Z,19.63
2019-04-20T02:29:00.721Z,19.23
2019-04-20T02:31:44.556Z,20.10
2019-04-20T02:34:40.015Z,19.57
2019-04-20T02:39:45.539Z,21.37
2019-04-20T02:42:12.062Z,19.20
2019-04-20T02:44:42.686Z,23.00
2019-04-20T02:49:51.372Z,21.40
2019-04-20T02:52:12.820Z,21.10
2019-04-20T02:54:55.043Z,20.80
2019-04-20T03:01:55.311Z,23.63
2019-04-20T03:04:17.314Z,22.50
2019-04-20T03:06:56.000Z,22.20
2019-04-20T03:09:32.547Z,27.77
2019-04-20T03:12:04.490Z,22.83
2019-04-20T03:14:21.871Z,25.30
2019-04-20T03:16:56.509Z,21.93
2019-04-20T03:19:19.784Z,21.70
2019-04-20T03:22:04.036Z,21.87
2019-04-20T03:24:31.064Z,22.53
2019-04-20T03:26:59.846Z,23.33
2019-04-20T03:29:52.568Z,20.80
2019-04-20T03:32:59.445Z,23.33
2019-04-20T03:35:12.172Z,21.60
2019-04-20T03:37:36.981Z,21.10
2019-04-20T03:39:58.023Z,21.50
2019-04-20T03:42:12.897Z,22.60
2019-04-20T03:44:50.119Z,20.70
2019-04-20T03:47:25.483Z,22.10
2019-04-20T03:50:06.202Z,22.33
2019-04-20T03:52:43.094Z,23.50
2019-04-20T03:55:36.970Z,22.47
2019-04-20T03:58:33.219Z,21.57
2019-04-20T04:01:47.832Z,21.40
2019-04-20T04:04:12.148Z,25.97
2019-04-20T04:06:32.105Z,22.63
2019-04-20T04:09:02.568Z,21.77
2019-04-20T04:11:41.420Z,20.90
2019-04-20T04:13:52.434Z,24.07
2019-04-20T04:16:22.183Z,23.53
2019-04-20T04:19:01.579Z,23.30
2019-04-20T04:21:35.509Z,22.73
2019-04-20T04:24:07.334Z,23.83
2019-04-20T04:26:38.027Z,22.80
2019-04-20T04:29:17.313Z,22.27
2019-04-20T04:31:39.122Z,22.67
2019-04-20T04:34:07.392Z,22.27
2019-04-20T04:36:39.362Z,23.13
2019-04-20T04:39:08.875Z,22.17
2019-04-20T04:41:36.467Z,23.17
2019-04-20T04:44:06.061Z,22.70
2019-04-20T04:46:18.638Z,24.73
2019-04-20T04:48:50.794Z,24.13
2019-04-20T04:51:22.990Z,24.53
2019-04-20T04:53:56.240Z,23.23
2019-04-20T04:56:19.762Z,23.87
2019-04-20T04:58:46.753Z,25.93
2019-04-20T05:01:20.723Z,26.20
2019-04-20T05:04:10.605Z,24.43
2019-04-20T05:06:35.417Z,23.70
2019-04-20T05:08:54.977Z,24.33
2019-04-20T05:11:21.619Z,24.90
2019-04-20T05:13:56.661Z,23.40
2019-04-20T05:16:43.814Z,24.10
2019-04-20T05:21:53.860Z,23.30
2019-04-20T05:24:34.816Z,23.87
2019-04-20T05:27:32.040Z,24.67
2019-04-20T05:29:39.510Z,22.60
2019-04-20T05:32:14.175Z,24.47
2019-04-20T05:35:02.350Z,24.13
2019-04-20T05:37:34.280Z,22.43
2019-04-20T05:39:57.531Z,23.73
2019-04-20T05:42:32.800Z,24.43
2019-04-20T05:44:57.132Z,24.47
2019-04-20T05:47:27.028Z,22.53
2019-04-20T05:49:53.764Z,23.60
2019-04-20T05:52:35.045Z,24.90
2019-04-20T05:54:58.013Z,22.50
2019-04-20T05:57:30.246Z,22.77
2019-04-20T06:00:05.587Z,24.80
2019-04-20T06:02:29.370Z,24.73
2019-04-20T06:05:06.409Z,23.83
2019-04-20T06:07:31.371Z,25.93
2019-04-20T06:09:59.948Z,24.60
2019-04-20T06:12:33.015Z,26.17
2019-04-20T06:15:04.504Z,27.47
2019-04-20T06:17:53.351Z,29.50
2019-04-20T06:20:31.264Z,29.30
2019-04-20T06:23:09.784Z,27.97
2019-04-20T06:28:03.717Z,29.93
2019-04-20T06:30:32.198Z,30.07
2019-04-20T06:34:24.084Z,27.53
2019-04-20T06:36:36.359Z,29.17
2019-04-20T06:39:08.340Z,28.83
2019-04-20T06:41:45.258Z,29.23
2019-04-20T06:44:00.654Z,28.37
2019-04-20T06:46:29.210Z,26.80
2019-04-20T06:49:04.082Z,27.57
2019-04-20T06:51:39.981Z,28.00
2019-04-20T06:54:12.338Z,27.00
2019-04-20T06:56:54.470Z,27.07
2019-04-20T06:59:26.275Z,26.90
2019-04-20T07:01:56.943Z,25.80
2019-04-20T07:06:56.609Z,26.60
2019-04-20T07:09:30.878Z,26.93
2019-04-20T07:11:53.013Z,25.60
2019-04-20T07:14:07.555Z,24.27
2019-04-20T07:16:59.158Z,25.63
2019-04-20T07:19:35.265Z,26.20
2019-04-20T07:22:26.355Z,25.43
2019-04-20T07:24:52.030Z,22.43
2019-04-20T07:27:14.450Z,23.93
2019-04-20T07:29:49.332Z,22.00
2019-04-20T07:32:10.277Z,23.20
2019-04-20T07:34:50.457Z,21.17
2019-04-20T07:39:55.804Z,20.97
2019-04-20T07:42:23.068Z,21.80
2019-04-20T07:44:56.680Z,20.67
2019-04-20T07:47:21.807Z,20.60
2019-04-20T07:49:45.648Z,20.87
2019-04-20T07:51:59.610Z,18.83
2019-04-20T07:55:03.490Z,20.70
2019-04-20T07:57:14.652Z,20.87
2019-04-20T07:59:39.709Z,21.30
2019-04-20T08:02:58.729Z,20.07
2019-04-20T08:05:36.729Z,18.20
2019-04-20T08:08:13.185Z,19.27
2019-04-20T08:10:47.154Z,19.67
2019-04-20T08:13:17.384Z,17.90
2019-04-20T08:18:13.588Z,17.97
2019-04-20T08:20:47.074Z,17.73
2019-04-20T08:23:12.271Z,17.97
2019-04-20T08:25:35.835Z,17.60
2019-04-20T08:28:16.720Z,18.37
2019-04-20T08:31:17.908Z,17.60
2019-04-20T08:34:04.492Z,16.90
2019-04-20T08:36:31.058Z,17.70
2019-04-20T08:41:20.568Z,16.87
2019-04-20T08:44:21.179Z,17.60
2019-04-20T08:46:25.185Z,18.20
2019-04-20T08:48:55.802Z,16.77
2019-04-20T08:51:25.484Z,16.77
2019-04-20T08:53:51.809Z,17.00
2019-04-20T08:56:18.775Z,16.57
2019-04-20T08:58:33.966Z,15.63
2019-04-20T09:01:06.566Z,16.20
2019-04-20T09:03:46.359Z,16.10
2019-04-20T09:06:14.338Z,16.70
2019-04-20T09:08:47.766Z,14.70
2019-04-20T09:11:19.682Z,14.80
2019-04-20T09:13:40.755Z,15.63
2019-04-20T09:16:02.601Z,15.90
2019-04-20T09:18:47.624Z,16.53
2019-04-20T09:21:19.981Z,16.10
2019-04-20T09:23:57.687Z,15.57
2019-04-20T09:26:29.691Z,14.73
2019-04-20T09:29:05.674Z,14.07
2019-04-20T09:31:39.247Z,15.03
2019-04-20T09:34:26.302Z,13.53
2019-04-20T09:37:22.281Z,13.63
2019-04-20T09:40:04.835Z,14.40
2019-04-20T09:42:18.319Z,13.53
2019-04-20T09:44:50.905Z,12.27
2019-04-20T09:47:23.821Z,13.20
2019-04-20T09:49:58.040Z,13.67
2019-04-20T09:52:28.984Z,12.70
2019-04-20T09:55:03.226Z,13.50
2019-04-20T09:57:40.981Z,13.20
2019-04-20T10:00:10.248Z,13.63
2019-04-20T10:02:24.116Z,14.07
2019-04-20T10:04:49.442Z,13.27
2019-04-20T10:07:21.354Z,13.03
2019-04-20T10:09:50.665Z,11.87
2019-04-20T10:12:20.001Z,14.87
2019-04-20T10:14:49.039Z,12.27
2019-04-20T10:17:18.072Z,13.10
2019-04-20T10:19:46.682Z,12.40
2019-04-20T10:22:18.326Z,12.50
2019-04-20T10:24:50.030Z,12.70
2019-04-20T10:27:16.791Z,11.30
2019-04-20T10:29:45.833Z,13.20
2019-04-20T10:32:16.021Z,11.57
2019-04-20T10:34:46.207Z,13.87
2019-04-20T10:37:24.145Z,11.43
2019-04-20T10:39:52.434Z,11.70
2019-04-20T10:42:20.519Z,11.10
2019-04-20T10:44:55.164Z,11.87
2019-04-20T10:47:22.990Z,10.70
2019-04-20T10:49:51.189Z,11.47
2019-04-20T10:52:20.014Z,10.83
2019-04-20T10:54:48.159Z,12.13
2019-04-20T10:57:17.446Z,11.83
2019-04-20T10:59:45.742Z,10.73
2019-04-20T11:02:17.897Z,10.60
2019-04-20T11:04:46.475Z,11.20
2019-04-20T11:07:14.723Z,10.03
2019-04-20T11:09:42.838Z,9.67
2019-04-20T11:12:12.381Z,10.80
2019-04-20T11:14:43.830Z,8.93
2019-04-20T11:17:10.483Z,8.37
2019-04-20T11:19:39.201Z,8.53
2019-04-20T11:22:08.404Z,9.43
2019-04-20T11:24:36.474Z,7.83
2019-04-20T11:27:04.557Z,8.40
2019-04-20T11:29:33.863Z,8.60
2019-04-20T11:32:03.022Z,9.40
2019-04-20T11:34:33.971Z,8.27
2019-04-20T11:37:03.291Z,7.43
2019-04-20T11:39:32.895Z,8.20
2019-04-20T11:42:01.573Z,7.37
2019-04-20T11:44:31.698Z,6.77
2019-04-20T11:47:00.855Z,5.90
2019-04-20T11:49:28.865Z,5.27
2019-04-20T11:51:59.377Z,5.00
2019-04-20T11:54:28.303Z,6.57
2019-04-20T11:57:07.151Z,6.53
2019-04-20T11:59:35.426Z,6.73
2019-04-20T12:02:29.575Z,6.27
2019-04-20T12:05:09.071Z,6.83
2019-04-20T12:07:26.734Z,7.87
2019-04-20T12:09:58.496Z,6.97
2019-04-20T12:12:35.879Z,7.70
2019-04-20T12:14:54.904Z,7.03
2019-04-20T12:17:23.759Z,7.20
2019-04-20T12:19:52.976Z,5.53
2019-04-20T12:22:21.527Z,6.60
2019-04-20T12:24:50.020Z,6.80
2019-04-20T12:27:18.641Z,6.40
2019-04-20T12:29:47.891Z,7.70
2019-04-20T12:32:16.721Z,7.27
2019-04-20T12:34:45.428Z,8.57
2019-04-20T12:37:13.470Z,7.73
2019-04-20T12:39:42.848Z,7.20
2019-04-20T12:42:11.294Z,7.47
2019-04-20T12:44:39.614Z,6.60
2019-04-20T12:47:07.790Z,8.87
2019-04-20T12:49:35.939Z,7.77
2019-04-20T12:52:06.422Z,7.17
2019-04-20T12:54:34.436Z,7.90
2019-04-20T12:57:02.650Z,7.87
2019-04-20T12:59:31.665Z,7.40
2019-04-20T13:02:00.006Z,7.73
2019-04-20T13:04:27.857Z,7.17
2019-04-20T13:06:57.638Z,7.30
2019-04-20T13:09:32.731Z,7.00
2019-04-20T13:12:09.906Z,7.10
2019-04-20T13:15:36.559Z,8.53
2019-04-20T13:18:05.522Z,7.13
2019-04-20T13:20:34.134Z,7.93
2019-04-20T13:23:03.930Z,6.93
2019-04-20T13:25:32.905Z,7.23
2019-04-20T13:28:01.080Z,7.77
2019-04-20T13:30:30.040Z,7.67
2019-04-20T13:32:59.339Z,8.10
2019-04-20T13:35:28.204Z,6.60
2019-04-20T13:37:56.390Z,6.70
2019-04-20T13:40:25.665Z,6.90
2019-04-20T13:42:54.050Z,7.60
2019-04-20T13:45:22.662Z,7.33
2019-04-20T13:47:50.882Z,6.60
2019-04-20T13:50:20.038Z,7.43
2019-04-20T13:52:48.906Z,7.63
2019-04-20T13:55:17.283Z,6.90
2019-04-20T13:57:54.112Z,7.20
2019-04-20T14:00:57.320Z,6.90
2019-04-20T14:03:29.972Z,6.50
2019-04-20T14:05:58.407Z,7.50
2019-04-20T14:08:27.460Z,9.50
2019-04-20T14:10:55.800Z,8.23
2019-04-20T14:13:25.592Z,7.80
2019-04-20T14:15:53.781Z,8.90
2019-04-20T14:18:22.875Z,8.43
2019-04-20T14:20:52.134Z,8.10
2019-04-20T14:23:21.148Z,9.53
2019-04-20T14:25:49.348Z,9.17
2019-04-20T14:28:18.465Z,8.20
2019-04-20T14:30:49.867Z,7.97
2019-04-20T14:33:18.973Z,8.33
2019-04-20T14:35:48.439Z,9.23
2019-04-20T14:38:17.606Z,7.90
2019-04-20T14:40:46.327Z,8.90
2019-04-20T14:43:15.501Z,11.60
2019-04-20T14:45:43.397Z,9.07
2019-04-20T14:48:12.059Z,10.23
2019-04-20T14:50:41.290Z,9.40
2019-04-20T14:53:09.580Z,10.20
2019-04-20T14:55:37.683Z,9.83
2019-04-20T14:58:11.150Z,9.43
2019-04-20T15:00:51.768Z,9.40
2019-04-20T15:03:40.094Z,10.37
2019-04-20T15:06:07.627Z,9.33
2019-04-20T15:08:36.760Z,9.03
2019-04-20T15:11:05.229Z,9.77
2019-04-20T15:13:33.300Z,9.10
2019-04-20T15:16:02.415Z,9.20
2019-04-20T15:18:41.633Z,8.23
2019-04-20T15:21:11.424Z,9.63
2019-04-20T15:23:39.707Z,8.43
2019-04-20T15:26:08.687Z,9.57
2019-04-20T15:28:36.792Z,9.90
2019-04-20T15:31:06.018Z,9.27
2019-04-20T15:33:34.823Z,10.17
2019-04-20T15:36:04.152Z,9.87
2019-04-20T15:38:33.279Z,9.87
2019-04-20T15:41:01.204Z,12.87
2019-04-20T15:43:30.297Z,8.97
2019-04-20T15:45:59.260Z,11.57
2019-04-20T15:48:28.084Z,10.13
2019-04-20T15:50:56.279Z,8.80
2019-04-20T15:53:24.190Z,8.73
2019-04-20T15:55:52.421Z,8.90
2019-04-20T15:58:20.742Z,9.60
2019-04-20T16:00:50.914Z,8.77
2019-04-20T16:03:29.655Z,8.40
2019-04-20T16:06:05.554Z,11.03
2019-04-20T16:08:36.679Z,8.20
2019-04-20T16:11:05.228Z,8.97
2019-04-20T16:13:38.042Z,9.53
2019-04-20T16:16:12.301Z,8.90
2019-04-20T16:18:41.146Z,8.40
2019-04-20T16:21:15.620Z,8.03
2019-04-20T16:23:46.661Z,8.63
2019-04-20T16:26:22.117Z,7.60
2019-04-20T16:28:50.196Z,9.03
2019-04-20T16:31:18.396Z,9.00
2019-04-20T16:33:46.623Z,8.40
2019-04-20T16:36:14.640Z,8.50
2019-04-20T16:38:43.565Z,8.63
2019-04-20T16:41:12.558Z,13.20
2019-04-20T16:43:44.229Z,9.57
2019-04-20T16:46:11.003Z,9.07
2019-04-20T16:48:42.062Z,8.53
2019-04-20T16:51:11.154Z,8.80
2019-04-20T16:53:39.594Z,9.53
2019-04-20T16:56:08.601Z,8.43
2019-04-20T16:58:37.886Z,8.57
2019-04-20T17:01:07.567Z,10.07
2019-04-20T17:03:44.375Z,10.23
2019-04-20T17:06:06.504Z,9.30
2019-04-20T17:08:34.355Z,9.80
2019-04-20T17:11:03.464Z,9.57
2019-04-20T17:13:38.821Z,9.77
2019-04-20T17:16:01.843Z,9.97
2019-04-20T17:18:29.849Z,9.60
2019-04-20T17:21:04.485Z,9.30
2019-04-20T17:23:28.252Z,9.97
2019-04-20T17:25:57.792Z,11.13
2019-04-20T17:28:49.014Z,14.20
2019-04-20T17:31:49.371Z,15.90
2019-04-20T17:34:37.241Z,12.70
2019-04-20T17:36:48.969Z,42.07
2019-04-20T17:39:27.751Z,86.20
2019-04-20T17:42:02.915Z,12.07
2019-04-20T17:44:31.515Z,12.80
2019-04-20T17:46:59.084Z,10.30
2019-04-20T17:49:31.471Z,10.90
2019-04-20T17:52:12.605Z,13.00
2019-04-20T17:54:37.957Z,11.00
2019-04-20T17:57:09.105Z,11.03
2019-04-20T17:59:40.166Z,16.30
2019-04-20T18:02:51.042Z,12.10
2019-04-20T18:05:35.509Z,54.97
2019-04-20T18:08:07.590Z,25.20
2019-04-20T18:10:34.278Z,21.73
2019-04-20T18:12:47.733Z,51.27
2019-04-20T18:15:31.305Z,19.73
2019-04-20T18:18:23.921Z,12.07
2019-04-20T18:20:59.156Z,25.73
2019-04-20T18:23:34.409Z,21.30
2019-04-20T18:26:17.138Z,16.20
2019-04-20T18:28:54.501Z,12.73
2019-04-20T18:31:11.775Z,15.60
2019-04-20T18:33:40.542Z,11.37
2019-04-20T18:36:13.295Z,10.37
2019-04-20T18:38:46.773Z,10.70
2019-04-20T18:41:18.788Z,10.93
2019-04-20T18:43:45.848Z,10.70
2019-04-20T18:46:21.894Z,11.63
2019-04-20T18:48:57.387Z,10.23
2019-04-20T18:51:07.970Z,10.17
2019-04-20T18:53:42.332Z,29.23
2019-04-20T18:56:09.484Z,14.20
2019-04-20T18:58:37.798Z,11.60
2019-04-20T19:01:07.428Z,14.23
2019-04-20T19:03:41.836Z,13.50
2019-04-20T19:06:07.196Z,12.17
2019-04-20T19:08:40.454Z,12.03
2019-04-20T19:11:09.854Z,10.87
2019-04-20T19:13:48.171Z,10.13
2019-04-20T19:16:35.631Z,11.23
2019-04-20T19:19:27.619Z,14.17
2019-04-20T19:21:48.112Z,11.93
2019-04-20T19:24:19.396Z,10.43
2019-04-20T19:26:51.556Z,11.27
2019-04-20T19:29:23.206Z,10.20
2019-04-20T19:32:07.354Z,10.67
2019-04-20T19:34:33.534Z,12.87
2019-04-20T19:37:00.341Z,11.30
2019-04-20T19:39:29.500Z,11.87
2019-04-20T19:41:54.022Z,11.73
2019-04-20T19:44:28.866Z,11.53
2019-04-20T19:47:04.900Z,11.67
2019-04-20T19:49:25.491Z,10.70
2019-04-20T19:52:20.692Z,12.10
2019-04-20T19:54:35.565Z,13.80
2019-04-20T19:57:01.315Z,12.27
2019-04-20T19:59:40.501Z,12.60
2019-04-20T20:02:05.551Z,12.47
2019-04-20T20:04:41.381Z,13.30
2019-04-20T20:07:07.036Z,13.73
2019-04-20T20:09:39.570Z,15.50
2019-04-20T20:12:10.455Z,13.07
2019-04-20T20:14:39.743Z,13.63
2019-04-20T20:17:27.150Z,13.67
2019-04-20T20:20:05.350Z,13.70
2019-04-20T20:22:16.892Z,14.10
2019-04-20T20:24:34.895Z,17.50
2019-04-20T20:27:07.591Z,13.50
2019-04-20T20:29:45.382Z,14.03
2019-04-20T20:32:17.711Z,13.63
2019-04-20T20:34:42.164Z,14.37
2019-04-20T20:37:11.099Z,14.47
2019-04-20T20:39:38.424Z,17.77
2019-04-20T20:42:18.949Z,15.37
2019-04-20T20:44:45.725Z,13.50
2019-04-20T20:47:34.153Z,12.97
2019-04-20T20:50:03.145Z,14.50
2019-04-20T20:52:21.877Z,13.70
2019-04-20T20:54:44.907Z,14.80
2019-04-20T20:57:11.372Z,12.73
2019-04-20T20:59:43.033Z,13.93
2019-04-20T21:02:12.435Z,12.93
2019-04-20T21:04:35.434Z,12.73
2019-04-20T21:07:04.592Z,13.33
2019-04-20T21:09:33.457Z,12.50
2019-04-20T21:12:07.014Z,11.83
2019-04-20T21:14:34.746Z,11.10
2019-04-20T21:17:10.093Z,12.37
2019-04-20T21:19:50.804Z,11.10
2019-04-20T21:22:10.006Z,12.70
2019-04-20T21:24:35.880Z,11.70
2019-04-20T21:27:08.862Z,12.67
2019-04-20T21:29:41.416Z,14.87
2019-04-20T21:32:09.361Z,12.37
2019-04-20T21:34:35.336Z,13.27
2019-04-20T21:37:10.611Z,12.10
2019-04-20T21:39:42.447Z,13.20
2019-04-20T21:42:10.393Z,13.03
2019-04-20T21:44:40.036Z,23.73
2019-04-20T21:47:03.440Z,12.67
2019-04-20T21:49:46.222Z,12.80
2019-04-20T21:52:05.067Z,14.17
2019-04-20T21:54:31.983Z,20.20
2019-04-20T21:57:03.927Z,13.40
2019-04-20T21:59:38.421Z,12.63
2019-04-20T22:02:06.540Z,14.83
2019-04-20T22:04:31.304Z,13.17
2019-04-20T22:07:00.451Z,12.80
2019-04-20T22:09:34.776Z,13.07
2019-04-20T22:12:00.269Z,14.00
2019-04-20T22:14:32.253Z,12.50
2019-04-20T22:17:00.816Z,13.13
2019-04-20T22:19:41.146Z,13.90
2019-04-20T22:22:11.686Z,13.70
2019-04-20T22:24:44.992Z,13.23
2019-04-20T22:27:09.610Z,13.60
2019-04-20T22:29:30.256Z,14.23
2019-04-20T22:32:03.982Z,15.43
2019-04-20T22:34:29.858Z,14.33
2019-04-20T22:36:58.181Z,12.93
2019-04-20T22:39:39.402Z,15.03
2019-04-20T22:42:07.346Z,13.60
2019-04-20T22:44:34.353Z,13.60
2019-04-20T22:47:05.506Z,12.77
2019-04-20T22:49:50.273Z,16.53
2019-04-20T22:52:14.283Z,12.43
2019-04-20T22:54:46.796Z,12.70
2019-04-20T22:57:10.681Z,12.47
2019-04-20T22:59:42.177Z,13.97
2019-04-20T23:02:04.170Z,13.23
2019-04-20T23:04:33.027Z,12.40
2019-04-20T23:07:01.081Z,13.30
2019-04-20T23:09:32.765Z,13.30
2019-04-20T23:12:06.066Z,14.03
2019-04-20T23:14:28.923Z,16.63
2019-04-20T23:16:57.600Z,13.17
2019-04-20T23:19:34.477Z,13.67
2019-04-20T23:22:01.227Z,13.20
2019-04-20T23:24:27.029Z,14.10
2019-04-20T23:26:55.367Z,13.90
2019-04-20T23:29:27.234Z,13.57
2019-04-20T23:31:59.420Z,13.00
2019-04-20T23:34:28.451Z,14.53
2019-04-20T23:36:54.803Z,13.30
2019-04-20T23:39:29.007Z,12.83
2019-04-20T23:41:58.654Z,13.20
2019-04-20T23:44:33.539Z,13.63
2019-04-20T23:47:13.751Z,13.90
2019-04-20T23:49:55.705Z,13.10
2019-04-20T23:52:35.609Z,13.30
2019-04-20T23:54:52.593Z,13.20
2019-04-20T23:57:13.574Z,13.90
2019-04-20T23:59:44.866Z,12.47
